Aérodrome :
LOGIN :

S'inscrire | Disclaimer

   EN    FR    IT 

 










Légende :    VFR   VFR Marginal   IFR   IFR Intensif   IFR Très Intensif
Visi : 
Plafond : 
>= 8 km
>= 3000ft
5 à 8 km
1000 à 3000 ft
1500m à 5 km
500 à 1000 ft
800 à 1500m
200 à 500 ft
< 800m
< 200 ft
Symboles :   Orages  Brouillard  Fortes neiges  Fortes précipitations  Vent > 20 kt
SIGMETs :   Divers  Orages  Givrage  Turbulence  Onde Orograph.  Cendres Volcan.






- Altitude de l'aérodrome : 256 ft
- Code IATA : CFR


LFRK - Caen

DERNIER METAR :
  • 041300Z AUTO 24008KT 9999 OVC028 18/12 Q1020 TEMPO BKN012

METARs EXPIRÉS :
  • 041230Z AUTO 24010KT 200V270 9999 BKN030 17/12 Q1020 TEMPO BKN012
  • 041200Z AUTO 23011KT 9999 OVC025 18/12 Q1020 TEMPO BKN012
  • 041130Z AUTO 23010KT 9999 OVC025 17/12 Q1020 TEMPO BKN012
  • 041100Z AUTO 22009KT 190V250 9999 BKN018 OVC026 16/12 Q1020 NOSIG
  • 041030Z AUTO 21008KT 9999 SCT013 SCT018 OVC027 16/13 Q1020 NOSIG

TAF TAF LFRK
Valide du 04 à 12h jusqu'au 04 à 21h UTC


041100Z 0412/0421 21010KT 9999 BKN030
PROB30
TEMPO 0412/0415 BKN012
Météo : +33 2 31 26 68 11



MET'MAP, la Météo Aéronautique d'un coup d'oeil ! - Copyright ORBIFLY Décembre 2007 - Disclaimer

ORBIFLY MET'MAP TEAM :

Programmation & Développement : Alexandra Zaïnal
Sur une idée originale de : Baudouin d'Aumeries
Soutien technique & logistique : Manuel Goepfert
Assistance : Marc-Olivier Méhu




SOURCES & CREDITS :

   NOAA